createdAt,value
2022-11-19T00:01:17.340Z,22.55
2022-11-19T00:03:48.645Z,22.73
2022-11-19T00:06:19.930Z,24.65
2022-11-19T00:08:47.333Z,29.95
2022-11-19T00:11:16.098Z,24.60
2022-11-19T00:13:43.826Z,21.92
2022-11-19T00:16:13.210Z,20.90
2022-11-19T00:18:41.005Z,21.13
2022-11-19T00:21:13.070Z,19.30
2022-11-19T00:23:40.899Z,24.02
2022-11-19T00:26:12.009Z,19.88
2022-11-19T00:28:39.363Z,21.23
2022-11-19T00:31:08.735Z,22.02
2022-11-19T00:33:36.517Z,19.52
2022-11-19T00:36:04.611Z,20.45
2022-11-19T00:38:32.324Z,21.73
2022-11-19T00:40:59.570Z,21.30
2022-11-19T00:43:45.317Z,23.95
2022-11-19T00:46:12.831Z,18.38
2022-11-19T00:48:40.061Z,25.75
2022-11-19T00:51:08.383Z,18.80
2022-11-19T00:53:35.861Z,18.60
2022-11-19T00:56:09.298Z,20.05
2022-11-19T00:58:36.433Z,23.10
2022-11-19T01:01:03.696Z,20.58
2022-11-19T01:03:31.680Z,21.77
2022-11-19T01:05:58.958Z,19.52
2022-11-19T01:08:26.426Z,21.13
2022-11-19T01:10:53.574Z,25.67
2022-11-19T01:13:36.079Z,25.02
2022-11-19T01:16:08.163Z,22.27
2022-11-19T01:18:36.071Z,21.30
2022-11-19T01:21:03.367Z,23.70
2022-11-19T01:23:30.484Z,21.02
2022-11-19T01:25:57.722Z,24.13
2022-11-19T01:28:25.154Z,25.85
2022-11-19T01:30:52.889Z,23.70
2022-11-19T01:33:20.432Z,20.88
2022-11-19T01:35:57.581Z,22.75
2022-11-19T01:38:25.175Z,21.48
2022-11-19T01:40:52.353Z,25.92
2022-11-19T01:43:19.470Z,22.92
2022-11-19T01:45:54.348Z,24.67
2022-11-19T01:48:26.829Z,25.85
2022-11-19T01:50:57.044Z,24.23
2022-11-19T01:53:27.252Z,23.63
2022-11-19T01:55:54.531Z,23.15
2022-11-19T01:58:23.623Z,23.40
2022-11-19T02:00:50.855Z,26.40
2022-11-19T02:03:19.002Z,23.85
2022-11-19T02:05:46.894Z,24.38
2022-11-19T02:08:34.741Z,27.17
2022-11-19T02:11:14.995Z,23.90
2022-11-19T02:14:00.386Z,26.30
2022-11-19T02:16:31.721Z,29.98
2022-11-19T02:19:07.582Z,23.85
2022-11-19T02:21:52.153Z,19.70
2022-11-19T02:24:37.909Z,26.50
2022-11-19T02:27:41.851Z,30.42
2022-11-19T02:30:10.958Z,28.52
2022-11-19T02:32:44.917Z,30.48
2022-11-19T02:35:22.496Z,27.52
2022-11-19T02:37:49.601Z,24.42
2022-11-19T02:40:23.526Z,28.95
2022-11-19T02:43:09.326Z,26.40
2022-11-19T02:45:38.901Z,30.25
2022-11-19T02:48:08.922Z,28.10
2022-11-19T02:50:43.345Z,27.35
2022-11-19T02:53:10.636Z,26.02
2022-11-19T02:55:38.091Z,30.90
2022-11-19T02:58:08.866Z,29.58
2022-11-19T03:01:02.279Z,31.45
2022-11-19T03:03:48.563Z,32.28
2022-11-19T03:06:17.608Z,29.52
2022-11-19T03:08:45.481Z,34.25
2022-11-19T03:11:17.009Z,27.85
2022-11-19T03:14:05.524Z,28.98
2022-11-19T03:16:44.205Z,30.45
2022-11-19T03:19:22.205Z,30.48
2022-11-19T03:22:09.555Z,33.80
2022-11-19T03:24:40.762Z,27.05
2022-11-19T03:27:20.516Z,32.90
2022-11-19T03:32:19.130Z,29.77
2022-11-19T03:34:47.640Z,26.17
2022-11-19T03:37:16.377Z,28.20
2022-11-19T03:39:44.253Z,30.50
2022-11-19T03:42:13.252Z,31.00
2022-11-19T03:44:43.471Z,28.75
2022-11-19T03:47:13.090Z,27.25
2022-11-19T03:49:42.671Z,28.13
2022-11-19T03:52:14.644Z,25.92
2022-11-19T03:54:42.244Z,27.20
2022-11-19T03:57:11.334Z,29.33
2022-11-19T03:59:38.592Z,28.27
2022-11-19T04:02:08.577Z,25.73
2022-11-19T04:04:37.358Z,28.60
2022-11-19T04:07:09.126Z,26.75
2022-11-19T04:09:36.390Z,26.75
2022-11-19T04:12:03.477Z,23.63
2022-11-19T04:16:57.403Z,29.85
2022-11-19T04:19:24.649Z,24.50
2022-11-19T04:21:51.895Z,26.08
2022-11-19T04:24:19.411Z,25.52
2022-11-19T04:26:46.522Z,29.90
2022-11-19T04:31:40.557Z,25.02
2022-11-19T04:34:07.698Z,28.42
2022-11-19T04:36:35.609Z,26.38
2022-11-19T04:39:02.818Z,30.88
2022-11-19T04:43:56.700Z,23.83
2022-11-19T04:46:23.818Z,28.02
2022-11-19T04:48:50.961Z,27.63
2022-11-19T04:53:45.326Z,28.30
2022-11-19T04:56:12.592Z,27.60
2022-11-19T04:58:39.725Z,28.50
2022-11-19T05:03:33.963Z,21.48
2022-11-19T05:06:01.424Z,24.27
2022-11-19T05:08:28.577Z,28.38
2022-11-19T05:13:22.241Z,26.65
2022-11-19T05:18:16.006Z,23.90
2022-11-19T05:23:09.759Z,27.20
2022-11-19T05:28:03.461Z,27.63
2022-11-19T05:32:57.195Z,23.33
2022-11-19T05:35:24.600Z,28.80
2022-11-19T05:37:52.018Z,24.60
2022-11-19T05:40:19.537Z,23.75
2022-11-19T05:42:46.694Z,22.60
2022-11-19T05:47:44.708Z,27.60
2022-11-19T05:50:15.496Z,25.58
2022-11-19T05:55:09.361Z,25.15
2022-11-19T06:00:04.996Z,23.65
2022-11-19T06:02:39.440Z,25.63
2022-11-19T06:05:06.796Z,23.00
2022-11-19T06:07:33.890Z,25.48
2022-11-19T06:12:27.723Z,20.95
2022-11-19T06:17:21.517Z,27.58
2022-11-19T06:22:15.223Z,19.48
2022-11-19T06:27:08.972Z,25.80
2022-11-19T06:32:02.676Z,24.45
2022-11-19T06:36:56.482Z,21.38
2022-11-19T06:39:23.754Z,23.63
2022-11-19T06:41:51.032Z,25.05
2022-11-19T06:44:18.199Z,25.70
2022-11-19T06:49:16.833Z,24.88
2022-11-19T06:51:46.907Z,27.65
2022-11-19T06:56:40.638Z,19.85
2022-11-19T06:59:07.689Z,22.92
2022-11-19T07:01:34.773Z,24.02
2022-11-19T07:06:28.544Z,23.90
2022-11-19T07:11:28.428Z,27.70
2022-11-19T07:13:59.761Z,24.08
2022-11-19T07:16:28.825Z,22.63
2022-11-19T07:18:57.179Z,25.13
2022-11-19T07:21:24.497Z,26.50
2022-11-19T07:23:51.618Z,24.27
2022-11-19T07:28:45.344Z,24.48
2022-11-19T07:33:39.393Z,22.02
2022-11-19T07:36:07.937Z,20.52
2022-11-19T07:38:37.072Z,25.27
2022-11-19T07:41:27.803Z,27.05
2022-11-19T07:43:54.992Z,24.52
2022-11-19T07:48:52.354Z,25.48
2022-11-19T07:51:19.490Z,25.33
2022-11-19T07:56:13.566Z,24.23
2022-11-19T07:58:40.686Z,25.38
2022-11-19T08:03:38.225Z,20.95
2022-11-19T08:08:33.634Z,21.67
2022-11-19T08:11:05.107Z,23.35
2022-11-19T08:13:32.825Z,26.90
2022-11-19T08:16:10.190Z,26.80
2022-11-19T08:18:37.315Z,24.00
2022-11-19T08:23:35.720Z,27.52
2022-11-19T08:26:02.831Z,29.77
2022-11-19T08:28:30.049Z,24.15
2022-11-19T08:30:57.658Z,25.48
2022-11-19T08:33:25.040Z,25.45
2022-11-19T08:35:55.864Z,22.52
2022-11-19T08:38:23.045Z,20.42
2022-11-19T08:43:17.307Z,22.77
2022-11-19T08:45:50.401Z,25.42
2022-11-19T08:48:17.565Z,25.05
2022-11-19T08:53:11.325Z,22.00
2022-11-19T08:58:06.340Z,22.77
2022-11-19T09:00:35.257Z,22.23
2022-11-19T09:03:02.348Z,18.90
2022-11-19T09:05:29.457Z,25.08
2022-11-19T09:07:56.571Z,22.75
2022-11-19T09:10:23.675Z,25.10
2022-11-19T09:12:51.552Z,24.80
2022-11-19T09:15:18.697Z,22.50
2022-11-19T09:20:14.322Z,21.50
2022-11-19T09:22:41.490Z,21.20
2022-11-19T09:27:37.073Z,18.58
2022-11-19T09:30:07.910Z,18.00
2022-11-19T09:32:35.486Z,21.30
2022-11-19T09:35:02.723Z,21.95
2022-11-19T09:37:33.933Z,18.92
2022-11-19T09:40:01.326Z,16.65
2022-11-19T09:42:38.174Z,19.35
2022-11-19T09:45:05.333Z,17.33
2022-11-19T09:50:19.854Z,21.20
2022-11-19T09:52:56.838Z,20.40
2022-11-19T09:55:31.923Z,18.02
2022-11-19T09:58:00.586Z,18.55
2022-11-19T10:00:29.781Z,21.77
2022-11-19T10:03:02.742Z,19.10
2022-11-19T10:05:35.983Z,16.40
2022-11-19T10:08:13.706Z,18.83
2022-11-19T10:10:49.349Z,18.10
2022-11-19T10:13:23.047Z,15.95
2022-11-19T10:16:02.368Z,15.95
2022-11-19T10:18:35.201Z,18.23
2022-11-19T10:21:07.165Z,13.02
2022-11-19T10:23:40.218Z,16.90
2022-11-19T10:26:11.697Z,18.15
2022-11-19T10:28:40.012Z,18.30
2022-11-19T10:31:08.758Z,17.95
2022-11-19T10:33:38.585Z,18.63
2022-11-19T10:36:08.696Z,16.50
2022-11-19T10:38:45.054Z,15.77
2022-11-19T10:43:52.138Z,15.00
2022-11-19T10:46:22.873Z,14.88
2022-11-19T10:48:55.850Z,18.17
2022-11-19T10:51:24.797Z,17.67
2022-11-19T10:53:53.015Z,16.35
2022-11-19T10:56:22.119Z,17.02
2022-11-19T10:58:52.261Z,16.33
2022-11-19T11:01:36.359Z,16.10
2022-11-19T11:04:08.516Z,16.88
2022-11-19T11:07:05.096Z,14.05
2022-11-19T11:09:42.300Z,14.60
2022-11-19T11:12:42.336Z,17.05
2022-11-19T11:15:14.436Z,18.63
2022-11-19T11:17:42.597Z,12.90
2022-11-19T11:20:18.878Z,16.33
2022-11-19T11:22:47.430Z,17.42
2022-11-19T11:25:20.868Z,18.83
2022-11-19T11:30:29.708Z,16.65
2022-11-19T11:35:33.963Z,15.70
2022-11-19T11:38:02.167Z,14.85
2022-11-19T11:40:30.079Z,13.43
2022-11-19T11:42:57.334Z,15.07
2022-11-19T11:45:34.698Z,13.98
2022-11-19T11:48:08.770Z,15.02
2022-11-19T11:50:37.677Z,14.63
2022-11-19T11:53:08.934Z,15.80
2022-11-19T11:55:38.517Z,14.82
2022-11-19T11:58:06.897Z,15.60
2022-11-19T12:00:39.978Z,16.42
2022-11-19T12:03:08.369Z,13.80
2022-11-19T12:05:42.422Z,13.88
2022-11-19T12:08:27.173Z,14.88
2022-11-19T12:10:54.377Z,16.40
2022-11-19T12:16:03.032Z,15.15
2022-11-19T12:19:09.716Z,12.25
2022-11-19T12:21:43.413Z,12.75
2022-11-19T12:24:22.525Z,12.68
2022-11-19T12:27:04.853Z,12.02
2022-11-19T12:29:38.029Z,13.98
2022-11-19T12:32:10.544Z,13.43
2022-11-19T12:34:38.748Z,14.05
2022-11-19T12:37:18.218Z,11.13
2022-11-19T12:39:55.796Z,13.80
2022-11-19T12:42:28.910Z,13.25
2022-11-19T12:45:06.698Z,13.38
2022-11-19T12:47:49.686Z,12.35
2022-11-19T12:50:22.600Z,12.23
2022-11-19T12:53:02.856Z,12.70
2022-11-19T12:55:33.333Z,14.20
2022-11-19T12:58:27.014Z,13.23
2022-11-19T13:00:57.682Z,11.05
2022-11-19T13:03:34.291Z,12.65
2022-11-19T13:06:03.710Z,10.93
2022-11-19T13:08:30.868Z,12.00
2022-11-19T13:11:04.097Z,10.70
2022-11-19T13:13:31.385Z,10.20
2022-11-19T13:16:01.438Z,8.48
2022-11-19T13:18:30.258Z,9.65
2022-11-19T13:21:02.340Z,9.40
2022-11-19T13:23:32.522Z,9.90
2022-11-19T13:26:05.118Z,9.63
2022-11-19T13:28:36.596Z,11.00
2022-11-19T13:31:07.777Z,9.27
2022-11-19T13:33:39.384Z,8.77
2022-11-19T13:36:24.695Z,8.70
2022-11-19T13:38:54.973Z,8.65
2022-11-19T13:42:01.888Z,9.38
2022-11-19T13:44:41.539Z,9.65
2022-11-19T13:47:13.656Z,11.20
2022-11-19T13:49:43.519Z,8.98
2022-11-19T13:52:14.090Z,7.18
2022-11-19T13:54:42.122Z,9.02
2022-11-19T13:57:10.264Z,8.98
2022-11-19T13:59:39.419Z,10.82
2022-11-19T14:02:14.230Z,11.02
2022-11-19T14:04:52.185Z,9.90
2022-11-19T14:07:24.596Z,8.68
2022-11-19T14:10:01.448Z,9.02
2022-11-19T14:15:19.929Z,8.50
2022-11-19T14:18:10.395Z,9.82
2022-11-19T14:21:00.898Z,11.02
2022-11-19T14:23:55.645Z,11.40
2022-11-19T14:26:40.869Z,11.30
2022-11-19T14:29:08.080Z,10.35
2022-11-19T14:31:55.125Z,10.50
2022-11-19T14:34:27.479Z,9.50
2022-11-19T14:36:56.637Z,8.90
2022-11-19T14:39:39.147Z,9.50
2022-11-19T14:42:15.553Z,10.20
2022-11-19T14:44:44.443Z,9.63
2022-11-19T14:47:17.586Z,9.10
2022-11-19T14:49:47.256Z,9.93
2022-11-19T14:52:23.635Z,8.38
2022-11-19T14:54:56.327Z,11.40
2022-11-19T14:57:28.595Z,10.27
2022-11-19T14:59:58.073Z,11.45
2022-11-19T15:02:37.705Z,9.90
2022-11-19T15:05:16.443Z,11.07
2022-11-19T15:07:51.377Z,10.57
2022-11-19T15:10:30.848Z,11.93
2022-11-19T15:13:18.037Z,10.50
2022-11-19T15:15:45.685Z,11.88
2022-11-19T15:18:26.887Z,10.63
2022-11-19T15:20:53.970Z,10.70
2022-11-19T15:26:16.863Z,11.88
2022-11-19T15:28:50.239Z,13.52
2022-11-19T15:31:34.627Z,11.93
2022-11-19T15:34:18.215Z,12.50
2022-11-19T15:36:46.480Z,12.93
2022-11-19T15:39:30.036Z,11.65
2022-11-19T15:42:02.243Z,16.08
2022-11-19T15:44:42.241Z,12.43
2022-11-19T15:47:18.772Z,15.13
2022-11-19T15:49:46.635Z,13.65
2022-11-19T15:52:18.347Z,12.30
2022-11-19T15:54:45.619Z,11.95
2022-11-19T15:57:22.063Z,12.88
2022-11-19T15:59:54.754Z,13.80
2022-11-19T16:02:27.847Z,12.35
2022-11-19T16:04:55.684Z,13.25
2022-11-19T16:07:27.027Z,14.63
2022-11-19T16:09:54.504Z,15.77
2022-11-19T16:12:41.266Z,15.18
2022-11-19T16:15:56.303Z,15.25
2022-11-19T16:18:23.528Z,13.50
2022-11-19T16:20:52.171Z,15.60
2022-11-19T16:23:20.355Z,13.48
2022-11-19T16:25:48.041Z,14.75
2022-11-19T16:28:20.184Z,15.07
2022-11-19T16:30:51.499Z,18.20
2022-11-19T16:33:23.144Z,19.27
2022-11-19T16:35:53.259Z,16.15
2022-11-19T16:38:26.121Z,15.98
2022-11-19T16:41:12.520Z,19.92
2022-11-19T16:43:41.638Z,16.85
2022-11-19T16:46:09.910Z,16.25
2022-11-19T16:48:37.003Z,17.08
2022-11-19T16:53:50.645Z,27.73
2022-11-19T16:58:46.343Z,18.90
2022-11-19T17:01:17.935Z,16.25
2022-11-19T17:03:45.477Z,18.80
2022-11-19T17:06:24.268Z,21.38
2022-11-19T17:08:56.866Z,23.23
2022-11-19T17:11:44.174Z,24.13
2022-11-19T17:14:17.384Z,18.98
2022-11-19T17:16:49.077Z,24.77
2022-11-19T17:19:20.776Z,21.90
2022-11-19T17:21:50.676Z,25.08
2022-11-19T17:24:22.542Z,18.27
2022-11-19T17:26:52.446Z,19.58
2022-11-19T17:29:22.728Z,17.92
2022-11-19T17:31:56.102Z,15.80
2022-11-19T17:34:29.269Z,12.98
2022-11-19T17:36:56.439Z,16.30
2022-11-19T17:42:14.868Z,13.40
2022-11-19T17:44:42.267Z,14.57
2022-11-19T17:47:20.762Z,13.02
2022-11-19T17:52:24.024Z,15.32
2022-11-19T17:54:56.273Z,15.90
2022-11-19T17:57:23.402Z,12.20
2022-11-19T18:02:18.387Z,17.13
2022-11-19T18:04:46.063Z,15.88
2022-11-19T18:07:13.739Z,15.32
2022-11-19T18:09:41.443Z,17.63
2022-11-19T18:12:13.000Z,15.75
2022-11-19T18:14:40.128Z,18.55
2022-11-19T18:17:07.303Z,15.23
2022-11-19T18:22:01.047Z,14.52
2022-11-19T18:24:28.175Z,14.45
2022-11-19T18:26:55.364Z,12.38
2022-11-19T18:31:51.215Z,13.13
2022-11-19T18:34:20.208Z,14.27
2022-11-19T18:36:47.381Z,18.17
2022-11-19T18:41:41.670Z,18.05
2022-11-19T18:46:58.170Z,22.58
2022-11-19T18:51:52.348Z,19.08
2022-11-19T18:54:19.489Z,17.05
2022-11-19T18:56:46.685Z,21.45
2022-11-19T19:01:40.827Z,17.77
2022-11-19T19:04:09.510Z,16.73
2022-11-19T19:06:36.694Z,13.85
2022-11-19T19:09:04.249Z,13.90
2022-11-19T19:11:49.826Z,19.75
2022-11-19T19:14:16.973Z,21.33
2022-11-19T19:16:44.089Z,19.98
2022-11-19T19:19:14.085Z,18.50
2022-11-19T19:21:41.244Z,16.08
2022-11-19T19:24:08.572Z,18.50
2022-11-19T19:26:35.720Z,15.00
2022-11-19T19:29:02.886Z,15.75
2022-11-19T19:33:56.677Z,17.73
2022-11-19T19:36:23.861Z,17.08
2022-11-19T19:41:21.032Z,18.33
2022-11-19T19:43:49.204Z,14.25
2022-11-19T19:46:17.576Z,16.88
2022-11-19T19:48:45.774Z,17.58
2022-11-19T19:51:13.937Z,18.85
2022-11-19T19:53:44.506Z,14.75
2022-11-19T19:56:16.179Z,13.82
2022-11-19T19:58:44.488Z,17.67
2022-11-19T20:01:13.547Z,17.48
2022-11-19T20:03:41.035Z,16.45
2022-11-19T20:06:08.615Z,17.45
2022-11-19T20:08:36.443Z,18.58
2022-11-19T20:11:05.042Z,17.08
2022-11-19T20:13:32.320Z,19.58
2022-11-19T20:16:00.747Z,17.60
2022-11-19T20:18:28.017Z,15.93
2022-11-19T20:23:22.060Z,18.33
2022-11-19T20:25:49.244Z,19.80
2022-11-19T20:30:42.903Z,17.27
2022-11-19T20:35:37.650Z,17.02
2022-11-19T20:40:31.556Z,17.95
2022-11-19T20:45:44.122Z,19.15
2022-11-19T20:50:38.592Z,17.45
2022-11-19T20:53:05.679Z,19.60
2022-11-19T20:55:32.773Z,17.27
2022-11-19T20:58:01.562Z,18.48
2022-11-19T21:00:28.895Z,21.13
2022-11-19T21:02:56.067Z,19.88
2022-11-19T21:07:49.871Z,20.13
2022-11-19T21:13:01.092Z,17.23
2022-11-19T21:15:28.868Z,22.50
2022-11-19T21:17:56.155Z,19.20
2022-11-19T21:20:23.379Z,21.60
2022-11-19T21:25:18.369Z,22.63
2022-11-19T21:27:45.529Z,20.02
2022-11-19T21:32:39.528Z,17.45
2022-11-19T21:37:34.254Z,16.98
2022-11-19T21:40:01.403Z,18.20
2022-11-19T21:42:28.551Z,17.33
2022-11-19T21:47:22.232Z,18.98
2022-11-19T21:49:49.383Z,19.55
2022-11-19T21:54:43.236Z,18.77
2022-11-19T21:59:36.892Z,20.17
2022-11-19T22:02:03.973Z,18.60
2022-11-19T22:04:31.096Z,17.15
2022-11-19T22:06:58.308Z,15.50
2022-11-19T22:11:53.421Z,18.83
2022-11-19T22:14:20.558Z,14.80
2022-11-19T22:16:47.749Z,20.58
2022-11-19T22:21:41.840Z,17.63
2022-11-19T22:24:09.117Z,14.95
2022-11-19T22:29:02.850Z,17.75
2022-11-19T22:31:29.928Z,16.80
2022-11-19T22:33:57.096Z,14.98
2022-11-19T22:36:24.468Z,19.30
2022-11-19T22:38:52.260Z,17.67
2022-11-19T22:41:20.707Z,17.13
2022-11-19T22:43:47.814Z,17.50
2022-11-19T22:46:15.525Z,17.55
2022-11-19T22:48:42.808Z,17.23
2022-11-19T22:53:37.175Z,18.00
2022-11-19T22:58:32.133Z,19.98
2022-11-19T23:00:59.642Z,16.42
2022-11-19T23:03:27.234Z,15.60
2022-11-19T23:05:55.537Z,19.52
2022-11-19T23:08:22.868Z,17.70
2022-11-19T23:10:57.098Z,21.45
2022-11-19T23:13:33.266Z,18.50
2022-11-19T23:16:06.183Z,16.95
2022-11-19T23:18:35.153Z,18.92
2022-11-19T23:21:04.128Z,18.90
2022-11-19T23:23:31.334Z,18.15
2022-11-19T23:25:58.924Z,19.55
2022-11-19T23:28:27.317Z,17.27
2022-11-19T23:30:54.509Z,20.35
2022-11-19T23:33:22.144Z,17.52
2022-11-19T23:35:49.393Z,19.15
2022-11-19T23:40:43.121Z,18.67
2022-11-19T23:43:10.238Z,16.73
2022-11-19T23:45:37.687Z,17.33
2022-11-19T23:48:04.867Z,20.83
2022-11-19T23:50:32.173Z,15.55
2022-11-19T23:52:59.280Z,18.85
2022-11-19T23:55:26.438Z,21.88
2022-11-19T23:57:53.628Z,21.30
